Time;durP1;ratioP1;P1;durP2;ratioP2;P2;SDS_P1;SDS_P2;PMS_P1;PMS_P2;Temp;Humidity;BMP_temperature;BMP_pressure;BME280_temperature;BME280_humidity;BME280_pressure;Samples;Min_cycle;Max_cycle;Signal;HPM_P1;HPM_P2
2022/07/23 00:00:51;;;;;;;6.32;2.50;;;15.60;99.90;;;;;;4837547;29;36279;-60
2022/07/23 00:03:19;;;;;;;7.45;3.25;;;15.60;99.90;;;;;;4836154;29;36319;-61
2022/07/23 00:05:47;;;;;;;8.57;3.90;;;15.60;99.90;;;;;;4838160;29;38554;-61
2022/07/23 00:08:14;;;;;;;7.38;3.28;;;15.60;99.90;;;;;;4835734;29;40036;-60
2022/07/23 00:10:41;;;;;;;10.15;4.38;;;15.70;99.90;;;;;;4837418;29;36314;-60
2022/07/23 00:13:09;;;;;;;7.70;3.83;;;15.70;99.90;;;;;;4836563;29;38593;-60
2022/07/23 00:15:36;;;;;;;6.90;3.72;;;15.60;99.90;;;;;;4836818;29;37808;-60
2022/07/23 00:18:04;;;;;;;7.25;3.65;;;15.70;99.90;;;;;;4836114;29;38824;-60
2022/07/23 00:20:32;;;;;;;6.25;3.20;;;15.70;99.90;;;;;;4832637;29;35320;-61
2022/07/23 00:23:00;;;;;;;7.97;3.50;;;15.70;99.90;;;;;;4831861;29;37369;-60
2022/07/23 00:25:28;;;;;;;7.65;3.67;;;15.70;99.90;;;;;;4832991;29;37580;-61
2022/07/23 00:27:56;;;;;;;5.72;3.15;;;15.70;99.90;;;;;;4831966;29;37411;-60
2022/07/23 00:30:23;;;;;;;6.70;3.00;;;15.60;99.90;;;;;;4832990;29;38896;-61
2022/07/23 00:32:53;;;;;;;5.40;3.33;;;15.60;99.90;;;;;;4830388;29;35670;-60
2022/07/23 00:35:21;;;;;;;6.10;3.70;;;15.50;99.90;;;;;;4832769;29;37842;-61
2022/07/23 00:37:50;;;;;;;10.07;3.92;;;15.50;99.90;;;;;;4833176;29;37595;-60
2022/07/23 00:40:18;;;;;;;5.47;3.30;;;15.50;99.90;;;;;;4831643;29;37429;-60
2022/07/23 00:42:45;;;;;;;6.18;3.28;;;15.50;99.90;;;;;;4831001;29;37915;-60
2022/07/23 00:45:13;;;;;;;7.15;3.92;;;15.40;99.90;;;;;;4832320;29;37502;-60
2022/07/23 00:47:40;;;;;;;5.95;3.33;;;15.40;99.90;;;;;;4833045;29;39164;-61
2022/07/23 00:50:09;;;;;;;7.45;3.50;;;15.40;99.90;;;;;;4832007;29;38040;-61
2022/07/23 00:52:38;;;;;;;8.93;3.83;;;15.40;99.90;;;;;;4833097;29;38470;-61
2022/07/23 00:55:09;;;;;;;6.70;4.07;;;15.40;99.90;;;;;;4832691;29;37711;-61
2022/07/23 00:57:36;;;;;;;7.70;3.90;;;15.40;99.90;;;;;;4830564;29;37833;-60
2022/07/23 01:00:05;;;;;;;5.60;3.55;;;15.30;99.90;;;;;;4832408;29;36655;-60
2022/07/23 01:02:33;;;;;;;8.18;4.28;;;15.30;99.90;;;;;;4831952;29;36117;-61
2022/07/23 01:05:00;;;;;;;7.40;4.13;;;15.20;99.90;;;;;;4830876;29;37203;-60
2022/07/23 01:07:29;;;;;;;7.72;3.50;;;15.20;99.90;;;;;;4832142;29;39610;-60
2022/07/23 01:09:56;;;;;;;7.65;3.33;;;15.20;99.90;;;;;;4832074;29;37515;-61
2022/07/23 01:12:25;;;;;;;8.98;3.95;;;15.10;99.90;;;;;;4834132;29;38039;-60
2022/07/23 01:14:55;;;;;;;5.07;3.05;;;15.10;99.90;;;;;;4835184;29;37693;-61
2022/07/23 01:17:22;;;;;;;8.65;4.00;;;15.10;99.90;;;;;;4836147;29;39079;-61
2022/07/23 01:19:50;;;;;;;9.05;4.60;;;15.10;99.90;;;;;;4835747;29;36534;-60
2022/07/23 01:22:20;;;;;;;6.25;3.38;;;15.10;99.90;;;;;;4837642;29;39096;-61
2022/07/23 01:24:48;;;;;;;9.85;3.95;;;15.10;99.90;;;;;;4833201;29;38556;-60
2022/07/23 01:27:17;;;;;;;7.45;4.18;;;15.10;99.90;;;;;;4834125;29;38988;-60
2022/07/23 01:29:44;;;;;;;8.85;3.70;;;15.10;99.90;;;;;;4834025;29;37031;-60
2022/07/23 01:32:12;;;;;;;11.02;4.85;;;15.10;99.90;;;;;;4833286;29;38686;-60
2022/07/23 01:34:40;;;;;;;8.90;3.95;;;15.10;99.90;;;;;;4834628;29;38494;-61
2022/07/23 01:37:08;;;;;;;11.68;4.32;;;15.00;99.90;;;;;;4834475;29;38163;-60
2022/07/23 01:39:35;;;;;;;9.95;4.18;;;15.00;99.90;;;;;;4834410;29;36362;-61
2022/07/23 01:42:04;;;;;;;6.47;3.70;;;14.90;99.90;;;;;;4834803;29;35965;-61
2022/07/23 01:44:31;;;;;;;10.57;3.92;;;15.00;99.90;;;;;;4833571;29;38526;-61
2022/07/23 01:46:58;;;;;;;8.32;3.50;;;14.90;99.90;;;;;;4833249;29;37515;-61
2022/07/23 01:49:26;;;;;;;8.30;3.42;;;15.00;99.90;;;;;;4834560;29;37511;-60
2022/07/23 01:52:02;;;;;;;8.77;4.03;;;15.00;99.90;;;;;;4833946;29;36255;-60
2022/07/23 01:54:31;;;;;;;5.22;3.67;;;15.00;99.90;;;;;;4833614;29;36699;-61
2022/07/23 01:56:59;;;;;;;8.77;3.65;;;15.00;99.90;;;;;;4835027;29;36382;-61
2022/07/23 01:59:28;;;;;;;7.18;4.15;;;15.00;99.90;;;;;;4833362;29;36283;-61
2022/07/23 02:01:56;;;;;;;5.90;3.58;;;15.00;99.90;;;;;;4833675;29;36313;-61
2022/07/23 02:04:25;;;;;;;7.95;3.90;;;15.00;99.90;;;;;;4833423;29;37863;-61
2022/07/23 02:06:53;;;;;;;7.88;4.38;;;15.00;99.90;;;;;;4832759;29;37360;-60
2022/07/23 02:09:20;;;;;;;8.50;3.85;;;15.00;99.90;;;;;;4833235;29;37318;-60
2022/07/23 02:11:48;;;;;;;8.27;4.07;;;15.00;99.90;;;;;;4831952;29;38567;-60
2022/07/23 02:14:15;;;;;;;7.82;4.07;;;15.00;99.90;;;;;;4830639;29;36573;-60
2022/07/23 02:16:44;;;;;;;8.30;4.63;;;15.00;99.90;;;;;;4834494;29;38096;-60
2022/07/23 02:19:11;;;;;;;8.07;3.88;;;15.00;99.90;;;;;;4830677;29;36689;-60
2022/07/23 02:21:39;;;;;;;7.40;4.00;;;15.00;99.90;;;;;;4832026;29;37726;-60
2022/07/23 02:24:07;;;;;;;9.73;4.47;;;15.00;99.90;;;;;;4832903;29;36535;-60
2022/07/23 02:26:34;;;;;;;6.85;4.30;;;15.00;99.90;;;;;;4834955;29;37507;-60
2022/07/23 02:29:02;;;;;;;15.45;5.35;;;14.90;99.90;;;;;;4833887;29;38566;-61
2022/07/23 02:31:30;;;;;;;7.65;4.32;;;14.90;99.90;;;;;;4833631;29;38558;-61
2022/07/23 02:33:58;;;;;;;8.23;3.92;;;14.90;99.90;;;;;;4834103;29;37775;-61
2022/07/23 02:36:26;;;;;;;7.10;4.03;;;14.80;99.90;;;;;;4829483;29;36084;-61
2022/07/23 02:38:53;;;;;;;6.82;4.03;;;14.80;99.90;;;;;;4835916;29;37004;-61
2022/07/23 02:41:20;;;;;;;9.00;4.10;;;14.80;99.90;;;;;;4835573;29;37495;-61
2022/07/23 02:43:48;;;;;;;7.82;4.38;;;14.80;99.90;;;;;;4834594;29;36410;-60
2022/07/23 02:46:15;;;;;;;7.45;4.13;;;14.90;99.90;;;;;;4833853;29;37204;-60
2022/07/23 02:48:42;;;;;;;9.15;4.85;;;14.90;99.90;;;;;;4835193;29;35282;-61
2022/07/23 02:51:11;;;;;;;10.60;4.50;;;14.90;99.90;;;;;;4834222;29;38204;-61
2022/07/23 02:53:38;;;;;;;7.10;4.32;;;14.90;99.90;;;;;;4834385;29;37366;-61
2022/07/23 02:56:06;;;;;;;7.40;4.15;;;14.90;99.90;;;;;;4835149;29;37534;-61
2022/07/23 02:58:33;;;;;;;7.07;4.32;;;14.90;99.90;;;;;;4833473;29;36400;-60
2022/07/23 03:01:01;;;;;;;6.93;4.43;;;14.90;99.90;;;;;;4834148;29;38169;-61
2022/07/23 03:03:28;;;;;;;5.97;3.80;;;15.00;99.90;;;;;;4833383;29;38154;-61
2022/07/23 03:05:55;;;;;;;8.80;4.47;;;14.90;99.90;;;;;;4835322;29;36160;-60
2022/07/23 03:08:24;;;;;;;6.90;4.15;;;14.90;99.90;;;;;;4834306;29;36725;-60
2022/07/23 03:10:51;;;;;;;6.65;4.20;;;14.90;99.90;;;;;;4834957;29;37313;-61
2022/07/23 03:13:19;;;;;;;6.13;4.10;;;14.90;99.90;;;;;;4833458;29;37739;-60
2022/07/23 03:15:46;;;;;;;7.80;4.45;;;14.90;99.90;;;;;;4834061;29;36350;-61
2022/07/23 03:18:14;;;;;;;9.90;4.18;;;14.80;99.90;;;;;;4832914;29;36667;-60
2022/07/23 03:20:41;;;;;;;9.07;4.38;;;14.80;99.90;;;;;;4835107;29;39363;-60
2022/07/23 03:23:08;;;;;;;6.40;3.92;;;14.80;99.90;;;;;;4835408;29;36384;-61
2022/07/23 03:25:37;;;;;;;8.38;4.70;;;14.80;99.90;;;;;;4833808;29;37393;-61
2022/07/23 03:28:05;;;;;;;8.60;4.18;;;14.70;99.90;;;;;;4832789;29;36599;-60
2022/07/23 03:30:32;;;;;;;9.20;4.53;;;14.80;99.90;;;;;;4838642;29;37621;-61
2022/07/23 03:33:00;;;;;;;11.02;4.75;;;14.80;99.90;;;;;;4837106;29;36747;-60
2022/07/23 03:35:27;;;;;;;7.13;4.38;;;14.80;99.90;;;;;;4838882;29;38286;-61
2022/07/23 03:37:54;;;;;;;12.00;4.22;;;14.90;99.90;;;;;;4837693;29;36551;-60
2022/07/23 03:40:21;;;;;;;7.65;3.90;;;14.90;99.90;;;;;;4837504;29;36160;-60
2022/07/23 03:42:50;;;;;;;8.88;3.83;;;14.90;99.90;;;;;;4838157;29;37579;-60
2022/07/23 03:45:18;;;;;;;9.43;3.63;;;14.90;99.90;;;;;;4838367;29;38581;-60
2022/07/23 03:47:45;;;;;;;6.95;3.47;;;14.90;99.90;;;;;;4838166;29;36971;-60
2022/07/23 03:50:12;;;;;;;7.97;4.18;;;14.90;99.90;;;;;;4837506;29;37160;-60
2022/07/23 03:52:40;;;;;;;8.70;3.20;;;15.00;99.90;;;;;;4837486;29;39164;-60
2022/07/23 03:55:08;;;;;;;6.68;3.10;;;15.00;99.90;;;;;;4836171;29;38469;-61
2022/07/23 03:57:35;;;;;;;7.65;3.60;;;15.00;99.90;;;;;;4833116;29;35314;-61
2022/07/23 04:00:05;;;;;;;9.77;3.58;;;15.10;99.90;;;;;;4833143;29;39522;-60
2022/07/23 04:02:32;;;;;;;5.95;3.08;;;15.10;99.90;;;;;;4833270;29;38417;-60
2022/07/23 04:05:00;;;;;;;7.32;3.17;;;15.10;99.90;;;;;;4832390;29;37725;-60
2022/07/23 04:07:28;;;;;;;7.55;2.65;;;15.10;99.90;;;;;;4832464;29;37611;-60
2022/07/23 04:09:55;;;;;;;7.53;3.17;;;15.20;99.90;;;;;;4831930;29;38830;-60
2022/07/23 04:12:22;;;;;;;6.13;2.60;;;15.20;99.90;;;;;;4833781;29;38849;-61
2022/07/23 04:14:50;;;;;;;6.53;2.90;;;15.20;99.90;;;;;;4833143;29;37267;-60
2022/07/23 04:17:18;;;;;;;8.93;2.78;;;15.20;99.90;;;;;;4833147;29;36679;-60
2022/07/23 04:19:46;;;;;;;7.53;2.95;;;15.20;99.90;;;;;;4833112;29;38274;-60
2022/07/23 04:22:13;;;;;;;5.15;2.80;;;15.20;99.90;;;;;;4832236;29;38118;-60
2022/07/23 04:24:40;;;;;;;6.32;3.15;;;15.20;99.90;;;;;;4832577;29;37875;-60
2022/07/23 04:27:08;;;;;;;8.93;3.20;;;15.30;99.90;;;;;;4833710;29;36427;-60
2022/07/23 04:29:35;;;;;;;8.63;3.47;;;15.20;99.90;;;;;;4833512;29;38274;-61
2022/07/23 04:32:02;;;;;;;7.60;4.03;;;15.20;99.90;;;;;;4832137;29;37821;-60
2022/07/23 04:34:31;;;;;;;9.60;3.20;;;15.30;99.90;;;;;;4832729;29;39760;-60
2022/07/23 04:37:00;;;;;;;7.95;3.40;;;15.30;99.90;;;;;;4834332;29;20049;-61
2022/07/23 04:39:27;;;;;;;6.95;3.22;;;15.30;99.90;;;;;;4833408;29;37490;-61
2022/07/23 04:41:54;;;;;;;9.05;3.60;;;15.30;99.90;;;;;;4831529;29;37763;-60
2022/07/23 04:44:22;;;;;;;8.55;3.33;;;15.40;99.90;;;;;;4832118;29;37312;-61
2022/07/23 04:46:49;;;;;;;7.00;2.97;;;15.40;99.90;;;;;;4831705;29;36172;-60
2022/07/23 04:49:17;;;;;;;8.95;3.30;;;15.50;99.90;;;;;;4831346;29;37443;-60
2022/07/23 04:51:45;;;;;;;6.78;3.25;;;15.50;99.90;;;;;;4832408;29;38307;-60
2022/07/23 04:54:12;;;;;;;5.20;2.60;;;15.50;99.90;;;;;;4831664;29;37322;-61
2022/07/23 04:56:40;;;;;;;7.70;2.95;;;15.60;99.90;;;;;;4832804;29;35862;-61
2022/07/23 04:59:07;;;;;;;5.60;2.88;;;15.70;99.90;;;;;;4832571;29;38058;-61
2022/07/23 05:01:34;;;;;;;5.75;2.80;;;15.80;99.90;;;;;;4838562;29;36474;-60
2022/07/23 05:04:02;;;;;;;6.80;2.42;;;15.80;99.90;;;;;;4832352;29;37452;-61
2022/07/23 05:06:29;;;;;;;6.82;2.95;;;15.80;99.90;;;;;;4831046;29;38055;-60
2022/07/23 05:08:58;;;;;;;5.75;2.65;;;15.80;99.90;;;;;;4831074;29;39640;-60
2022/07/23 05:11:25;;;;;;;6.40;2.80;;;15.80;99.90;;;;;;4830884;29;37497;-60
2022/07/23 05:13:52;;;;;;;6.60;2.88;;;15.70;99.90;;;;;;4831130;29;37332;-60
2022/07/23 05:16:20;;;;;;;4.78;2.65;;;15.70;99.90;;;;;;4830417;29;36767;-60
2022/07/23 05:18:47;;;;;;;7.22;3.10;;;15.70;99.90;;;;;;4830173;29;37654;-60
2022/07/23 05:21:14;;;;;;;8.95;2.65;;;15.70;99.90;;;;;;4829812;29;38730;-60
2022/07/23 05:23:42;;;;;;;7.55;2.83;;;15.70;99.90;;;;;;4829254;29;35971;-60
2022/07/23 05:26:10;;;;;;;8.23;3.00;;;15.70;99.90;;;;;;4830070;29;38861;-60
2022/07/23 05:28:38;;;;;;;5.15;2.70;;;15.70;99.90;;;;;;4830557;29;37558;-60
2022/07/23 05:31:05;;;;;;;5.32;2.47;;;15.80;99.90;;;;;;4830797;29;39736;-60
2022/07/23 05:33:33;;;;;;;5.55;2.40;;;15.90;99.90;;;;;;4829581;29;36078;-61
2022/07/23 05:36:02;;;;;;;6.80;3.35;;;16.10;99.90;;;;;;4831158;29;36774;-60
2022/07/23 05:38:30;;;;;;;9.93;2.60;;;16.30;99.90;;;;;;4831470;29;36572;-60
2022/07/23 05:40:57;;;;;;;5.72;2.60;;;16.50;99.90;;;;;;4831749;29;40202;-60
2022/07/23 05:43:26;;;;;;;7.03;3.17;;;16.70;99.90;;;;;;4829912;29;37477;-60
2022/07/23 05:45:54;;;;;;;7.68;2.58;;;16.70;99.90;;;;;;4831081;29;37068;-60
2022/07/23 05:48:21;;;;;;;5.53;2.25;;;16.60;99.90;;;;;;4828603;29;38637;-60
2022/07/23 05:50:49;;;;;;;4.90;2.50;;;16.50;99.90;;;;;;4828696;29;38661;-61
2022/07/23 05:53:16;;;;;;;4.95;2.90;;;16.50;99.90;;;;;;4829230;29;38672;-61
2022/07/23 05:55:43;;;;;;;6.07;2.50;;;16.40;99.90;;;;;;4830321;29;36734;-61
2022/07/23 05:58:11;;;;;;;8.90;2.90;;;16.30;99.90;;;;;;4832573;29;38297;-60
2022/07/23 06:00:39;;;;;;;6.05;2.45;;;16.30;99.90;;;;;;4832988;29;38748;-60
2022/07/23 06:03:07;;;;;;;6.50;2.50;;;16.30;99.90;;;;;;4832834;29;38262;-60
2022/07/23 06:05:34;;;;;;;4.57;2.28;;;16.30;99.90;;;;;;4837218;29;35361;-60
2022/07/23 06:08:01;;;;;;;6.50;2.20;;;16.30;99.90;;;;;;4837302;29;37909;-60
2022/07/23 06:10:29;;;;;;;5.95;2.42;;;16.30;99.90;;;;;;4839586;29;37609;-60
2022/07/23 06:12:56;;;;;;;4.18;2.10;;;16.30;99.90;;;;;;4834715;29;36020;-60
2022/07/23 06:15:24;;;;;;;5.25;2.30;;;16.30;99.90;;;;;;4833222;29;37288;-61
2022/07/23 06:17:53;;;;;;;7.43;2.22;;;16.30;99.90;;;;;;4832272;29;37644;-61
2022/07/23 06:20:20;;;;;;;4.50;2.25;;;16.40;99.90;;;;;;4832234;29;38832;-60
2022/07/23 06:22:47;;;;;;;4.20;1.92;;;16.40;99.90;;;;;;4832628;29;36317;-60
2022/07/23 06:25:16;;;;;;;6.22;2.20;;;16.50;99.90;;;;;;4833286;29;36628;-61
2022/07/23 06:27:43;;;;;;;5.13;2.13;;;16.60;99.90;;;;;;4830592;29;38255;-61
2022/07/23 06:30:12;;;;;;;5.00;2.17;;;16.80;99.90;;;;;;4830696;29;37652;-61
2022/07/23 06:32:39;;;;;;;6.85;1.80;;;16.90;99.90;;;;;;4831541;29;37480;-60
2022/07/23 06:35:09;;;;;;;5.68;2.25;;;17.20;99.90;;;;;;4831376;29;38040;-60
2022/07/23 06:37:36;;;;;;;3.58;1.73;;;17.60;99.90;;;;;;4830712;29;37729;-60
2022/07/23 06:40:04;;;;;;;4.47;1.63;;;18.00;99.90;;;;;;4831767;29;38142;-60
2022/07/23 06:42:31;;;;;;;3.53;1.13;;;18.30;99.90;;;;;;4832519;29;38044;-61
2022/07/23 06:44:59;;;;;;;3.28;1.02;;;18.30;99.90;;;;;;4831062;29;37516;-60
2022/07/23 06:47:26;;;;;;;2.70;1.00;;;18.30;99.90;;;;;;4832119;29;37196;-60
2022/07/23 06:49:53;;;;;;;4.00;1.10;;;18.20;99.90;;;;;;4829681;29;37931;-61
2022/07/23 06:52:22;;;;;;;2.85;1.13;;;18.30;99.90;;;;;;4831439;29;37523;-60
2022/07/23 06:54:50;;;;;;;3.17;0.90;;;18.40;99.90;;;;;;4832598;29;37481;-60
2022/07/23 06:57:17;;;;;;;3.63;1.23;;;18.50;99.90;;;;;;4835756;29;36271;-61
2022/07/23 06:59:44;;;;;;;2.88;1.00;;;18.60;99.90;;;;;;4841299;29;37880;-61
2022/07/23 07:02:12;;;;;;;2.33;0.50;;;18.60;99.90;;;;;;4833871;29;38139;-61
2022/07/23 07:04:39;;;;;;;1.55;0.50;;;18.60;99.90;;;;;;4832512;29;36242;-61
2022/07/23 07:07:06;;;;;;;3.38;1.05;;;18.50;99.90;;;;;;4831769;29;37938;-60
2022/07/23 07:09:35;;;;;;;3.00;0.90;;;18.50;99.90;;;;;;4830613;29;36652;-60
2022/07/23 07:12:02;;;;;;;3.30;0.85;;;18.40;99.70;;;;;;4831537;29;38343;-61
2022/07/23 07:14:30;;;;;;;3.33;0.80;;;18.50;99.70;;;;;;4832473;29;37079;-60
2022/07/23 07:16:58;;;;;;;1.88;0.60;;;18.60;99.60;;;;;;4830154;29;38096;-60
2022/07/23 07:19:25;;;;;;;3.60;0.65;;;18.80;99.00;;;;;;4833636;29;36614;-61
2022/07/23 07:21:52;;;;;;;13.07;1.40;;;18.90;98.70;;;;;;4839420;29;37294;-60
2022/07/23 07:24:19;;;;;;;3.63;0.63;;;18.90;98.80;;;;;;4832437;29;37300;-61
2022/07/23 17:35:00;;;;;;;3.15;1.35;;;19.70;97.00;;;;;;5019236;23;20550;-59
2022/07/23 17:37:27;;;;;;;2.95;1.15;;;19.70;96.90;;;;;;5215369;23;36646;-60
2022/07/23 17:39:55;;;;;;;9.80;1.92;;;19.70;96.80;;;;;;4834754;29;37099;-60
2022/07/23 17:42:32;;;;;;;3.72;1.15;;;19.70;96.70;;;;;;5419031;23;38572;31
2022/07/23 17:45:00;;;;;;;3.80;1.42;;;19.70;96.90;;;;;;5124910;23;37242;-53
2022/07/23 17:47:27;;;;;;;4.97;1.20;;;19.60;97.20;;;;;;4853897;29;37561;-54
2022/07/23 17:49:54;;;;;;;3.38;0.90;;;19.60;97.30;;;;;;4855316;29;36302;-54
2022/07/23 17:52:23;;;;;;;6.80;1.38;;;19.60;97.60;;;;;;4856064;29;38728;-54
2022/07/23 17:54:51;;;;;;;3.08;1.25;;;19.60;97.70;;;;;;4856170;29;38350;-55
2022/07/23 17:57:18;;;;;;;5.25;1.30;;;19.60;97.90;;;;;;4857489;29;37394;-54
2022/07/23 17:59:45;;;;;;;5.35;1.60;;;19.60;98.00;;;;;;4860120;29;36253;-54
2022/07/23 18:02:13;;;;;;;2.63;1.05;;;19.50;98.10;;;;;;4857036;29;38032;-54
2022/07/23 18:04:41;;;;;;;2.17;1.05;;;19.50;98.20;;;;;;4857201;29;38591;-55
2022/07/23 18:07:08;;;;;;;4.05;1.30;;;19.50;98.20;;;;;;4858012;29;36284;-54
2022/07/23 18:09:37;;;;;;;3.65;1.33;;;19.50;98.20;;;;;;4858117;29;37533;-55
2022/07/23 18:12:05;;;;;;;5.55;1.27;;;19.50;98.10;;;;;;4859369;29;38202;-54
2022/07/23 18:14:32;;;;;;;2.05;0.98;;;19.50;98.20;;;;;;4858161;29;37627;-54
2022/07/23 18:17:00;;;;;;;6.28;1.52;;;19.50;98.40;;;;;;4857639;29;36725;-55
2022/07/23 18:19:27;;;;;;;4.25;1.38;;;19.50;98.70;;;;;;4859836;29;35976;-54
2022/07/23 18:21:54;;;;;;;4.03;1.30;;;19.40;98.90;;;;;;4859639;29;38196;-55
2022/07/23 18:24:24;;;;;;;1.88;1.00;;;19.40;99.00;;;;;;4858380;29;37852;-55
2022/07/23 18:26:53;;;;;;;4.65;1.52;;;19.40;99.20;;;;;;4857986;29;36426;-55
2022/07/23 18:29:20;;;;;;;4.30;1.67;;;19.40;99.40;;;;;;4859038;29;37518;-54
2022/07/23 18:31:48;;;;;;;3.13;1.33;;;19.30;99.40;;;;;;4859107;29;39641;-55
2022/07/23 18:34:16;;;;;;;5.53;1.70;;;19.30;99.50;;;;;;4857853;29;39299;-54
2022/07/23 18:36:43;;;;;;;6.05;1.40;;;19.30;99.60;;;;;;4859384;29;38517;-54
2022/07/23 18:39:10;;;;;;;3.83;1.50;;;19.30;99.60;;;;;;4859688;29;37298;-54
2022/07/23 18:41:38;;;;;;;3.70;1.40;;;19.20;99.60;;;;;;4858072;29;37019;-55
2022/07/23 18:44:08;;;;;;;10.25;2.13;;;19.20;99.60;;;;;;4851120;29;36626;-55
2022/07/23 18:46:35;;;;;;;4.18;1.33;;;19.20;99.60;;;;;;4823407;29;35669;-54
2022/07/23 18:49:02;;;;;;;5.07;1.20;;;19.20;99.80;;;;;;4822856;29;38518;-55
2022/07/23 18:51:30;;;;;;;2.88;1.25;;;19.10;99.90;;;;;;4823739;29;39485;-55
2022/07/23 18:53:57;;;;;;;2.78;1.42;;;19.10;99.90;;;;;;4824803;29;36398;-54
2022/07/23 18:56:24;;;;;;;5.88;2.20;;;19.10;99.90;;;;;;4823439;29;36669;-54
2022/07/23 18:58:51;;;;;;;3.60;1.35;;;19.00;99.90;;;;;;4826387;29;37447;-55
2022/07/23 19:01:20;;;;;;;3.10;1.50;;;19.00;99.90;;;;;;4824777;29;38363;-54
2022/07/23 19:03:47;;;;;;;2.75;1.30;;;18.90;99.90;;;;;;4823630;29;38788;-55
2022/07/23 19:06:15;;;;;;;4.53;1.85;;;18.90;99.90;;;;;;4826071;29;37279;-53
2022/07/23 19:08:42;;;;;;;4.85;2.13;;;18.80;99.90;;;;;;4824281;29;36324;-54
2022/07/23 19:11:10;;;;;;;4.30;1.60;;;18.80;99.90;;;;;;4825595;29;37893;-55
2022/07/23 19:13:37;;;;;;;3.42;1.58;;;18.80;99.90;;;;;;4826537;29;39185;-55
2022/07/23 19:16:05;;;;;;;6.70;1.63;;;18.70;99.90;;;;;;4823076;29;37343;-54
2022/07/23 19:18:33;;;;;;;3.80;1.45;;;18.70;99.90;;;;;;4826078;29;35998;-54
2022/07/23 19:21:01;;;;;;;4.38;1.65;;;18.60;99.90;;;;;;4826254;29;37390;-55
2022/07/23 19:23:28;;;;;;;3.22;1.73;;;18.60;99.90;;;;;;4826391;29;37902;-55
2022/07/23 19:25:56;;;;;;;4.32;1.58;;;18.60;99.90;;;;;;4825003;29;37044;-55
2022/07/23 19:28:23;;;;;;;3.63;1.50;;;18.50;99.90;;;;;;4824502;29;36156;-55
2022/07/23 19:30:51;;;;;;;4.55;1.38;;;18.50;99.90;;;;;;4824884;29;39458;-54
2022/07/23 19:33:18;;;;;;;3.65;1.45;;;18.40;99.90;;;;;;4821585;29;37607;-54
2022/07/23 19:35:47;;;;;;;4.53;1.58;;;18.50;99.90;;;;;;4814823;29;36234;-55
2022/07/23 19:38:15;;;;;;;4.43;1.60;;;18.40;99.90;;;;;;4816808;29;37325;-55
2022/07/23 19:40:42;;;;;;;4.60;1.90;;;18.40;99.90;;;;;;4816834;29;38115;-55
2022/07/23 19:43:10;;;;;;;5.13;1.40;;;18.30;99.90;;;;;;4816705;29;38723;-54
2022/07/23 19:45:38;;;;;;;3.90;1.30;;;18.30;99.90;;;;;;4829612;29;37604;-54
2022/07/23 19:48:06;;;;;;;2.85;1.23;;;18.20;99.90;;;;;;4833158;29;36396;-54
2022/07/23 19:50:34;;;;;;;3.60;1.30;;;18.20;99.90;;;;;;4835761;29;36654;-55
2022/07/23 19:53:03;;;;;;;3.47;1.50;;;18.10;99.90;;;;;;4834820;29;37223;-55
2022/07/23 19:55:32;;;;;;;6.28;1.65;;;18.10;99.90;;;;;;4832972;29;35473;-54
2022/07/23 19:58:00;;;;;;;4.80;1.67;;;18.10;99.90;;;;;;4833832;29;37469;-55
2022/07/23 20:00:27;;;;;;;8.55;1.60;;;18.10;99.90;;;;;;4833833;29;38090;-55
2022/07/23 20:02:55;;;;;;;2.25;1.15;;;18.00;99.90;;;;;;4835063;29;38448;-55
2022/07/23 20:05:22;;;;;;;4.47;1.60;;;17.90;99.90;;;;;;4833049;29;36588;-54
2022/07/23 20:07:50;;;;;;;3.65;1.70;;;17.90;99.90;;;;;;4833211;29;36335;-55
2022/07/23 20:10:19;;;;;;;3.22;1.42;;;17.90;99.90;;;;;;4832679;29;38155;-54
2022/07/23 20:12:46;;;;;;;3.83;1.40;;;17.80;99.90;;;;;;4833418;29;40335;-55
2022/07/23 20:15:14;;;;;;;8.20;2.00;;;17.80;99.90;;;;;;4830866;29;36328;-55
2022/07/23 20:17:41;;;;;;;4.20;1.85;;;17.70;99.90;;;;;;4833317;29;37846;-55
2022/07/23 20:20:10;;;;;;;4.55;1.70;;;17.70;99.90;;;;;;4832878;29;39549;-55
2022/07/23 20:22:37;;;;;;;4.72;1.90;;;17.70;99.90;;;;;;4831803;29;37490;-55
2022/07/23 20:25:07;;;;;;;3.33;1.55;;;17.70;99.90;;;;;;4832145;29;36304;-54
2022/07/23 20:27:36;;;;;;;5.75;1.52;;;17.70;99.90;;;;;;4833966;29;39889;-54
2022/07/23 20:30:04;;;;;;;4.68;1.45;;;17.60;99.90;;;;;;4834201;29;37037;-55
2022/07/23 20:32:32;;;;;;;5.22;1.83;;;17.60;99.90;;;;;;4834235;29;36517;-55
2022/07/23 20:34:59;;;;;;;5.50;1.60;;;17.60;99.90;;;;;;4832490;29;36905;-54
2022/07/23 20:37:26;;;;;;;3.63;1.50;;;17.60;99.90;;;;;;4833949;29;37968;-54
2022/07/23 20:39:54;;;;;;;4.38;1.70;;;17.60;99.90;;;;;;4833909;29;37962;-55
2022/07/23 20:42:21;;;;;;;4.18;2.00;;;17.60;99.90;;;;;;4832361;29;38640;-54
2022/07/23 20:44:50;;;;;;;4.57;1.67;;;17.60;99.90;;;;;;4832543;29;38026;-54
2022/07/23 20:47:18;;;;;;;4.53;1.83;;;17.50;99.90;;;;;;4833482;29;37660;-54
2022/07/23 20:49:46;;;;;;;3.97;1.60;;;17.50;99.90;;;;;;4833855;29;37061;-55
2022/07/23 20:52:13;;;;;;;5.45;1.52;;;17.50;99.90;;;;;;4832937;29;38031;-55
2022/07/23 20:54:42;;;;;;;5.25;1.83;;;17.50;99.90;;;;;;4832666;29;37848;-54
2022/07/23 20:57:09;;;;;;;4.80;1.83;;;17.40;99.90;;;;;;4833774;29;38037;-55
2022/07/23 20:59:37;;;;;;;6.13;2.42;;;17.40;99.90;;;;;;4833664;29;38038;-55
2022/07/23 21:02:05;;;;;;;5.18;2.20;;;17.40;99.90;;;;;;4833295;29;36544;-55
2022/07/23 21:04:33;;;;;;;3.58;1.67;;;17.40;99.90;;;;;;4834905;29;35365;-55
2022/07/23 21:07:00;;;;;;;7.18;1.90;;;17.30;99.90;;;;;;4834330;29;37475;-54
2022/07/23 21:09:28;;;;;;;5.30;1.73;;;17.40;99.90;;;;;;4833983;29;38191;-55
2022/07/23 21:11:55;;;;;;;16.30;3.15;;;17.30;99.90;;;;;;4833393;29;36675;-55
2022/07/23 21:14:22;;;;;;;3.13;1.48;;;17.30;99.90;;;;;;4833077;29;36477;-55
2022/07/23 21:16:50;;;;;;;5.90;1.70;;;17.30;99.90;;;;;;4828755;29;38447;-55
2022/07/23 21:19:19;;;;;;;5.50;2.05;;;17.30;99.90;;;;;;4833729;29;40718;-54
2022/07/23 21:21:46;;;;;;;3.78;1.85;;;17.20;99.90;;;;;;4833091;29;39296;-55
2022/07/23 21:24:13;;;;;;;6.18;2.33;;;17.20;99.90;;;;;;4834120;29;37460;-55
2022/07/23 21:26:41;;;;;;;4.63;1.85;;;17.10;99.90;;;;;;4830486;29;38664;-55
2022/07/23 21:29:08;;;;;;;4.40;1.83;;;17.10;99.90;;;;;;4834576;29;36951;-54
2022/07/23 21:31:36;;;;;;;6.43;2.17;;;17.10;99.90;;;;;;4835461;29;37804;-55
2022/07/23 21:34:03;;;;;;;4.95;2.10;;;17.10;99.90;;;;;;4835500;29;36734;-55
2022/07/23 21:36:32;;;;;;;5.20;1.92;;;17.20;99.90;;;;;;4836135;29;39100;-55
2022/07/23 21:38:59;;;;;;;6.43;2.20;;;17.20;99.90;;;;;;4833172;29;39366;-55
2022/07/23 21:41:28;;;;;;;5.75;2.40;;;17.20;99.90;;;;;;4834868;29;38121;-55
2022/07/23 21:43:57;;;;;;;4.85;2.15;;;17.20;99.90;;;;;;4834904;29;36563;-55
2022/07/23 21:46:24;;;;;;;4.47;2.00;;;17.20;99.90;;;;;;4834228;29;37710;-55
2022/07/23 21:48:52;;;;;;;7.60;2.47;;;17.10;99.90;;;;;;4835061;29;40356;-55
2022/07/23 21:51:19;;;;;;;6.10;2.20;;;17.10;99.90;;;;;;4835392;29;38137;-55
2022/07/23 21:53:48;;;;;;;9.00;2.75;;;17.00;99.90;;;;;;4833136;29;38280;-55
2022/07/23 21:56:16;;;;;;;4.50;2.00;;;17.00;99.90;;;;;;4835523;29;38863;-54
2022/07/23 21:58:43;;;;;;;6.57;2.00;;;17.00;99.90;;;;;;4834368;29;38259;-55
2022/07/23 22:01:10;;;;;;;8.40;2.45;;;17.10;99.90;;;;;;4833847;29;38317;-55
2022/07/23 22:03:38;;;;;;;4.32;2.30;;;17.10;99.90;;;;;;4834279;29;35303;-55
2022/07/23 22:06:05;;;;;;;4.43;1.83;;;17.10;99.90;;;;;;4834677;29;38859;-55
2022/07/23 22:24:10;;;;;;;4.75;2.13;;;17.00;99.90;;;;;;4954157;23;20504;-61
2022/07/23 22:26:38;;;;;;;7.80;2.33;;;17.00;99.90;;;;;;4824865;29;38446;-61
2022/07/23 22:29:08;;;;;;;11.05;2.70;;;17.00;99.90;;;;;;5363058;23;38919;-55
2022/07/23 22:31:35;;;;;;;5.15;2.38;;;16.90;99.90;;;;;;4828539;29;38135;-55
2022/07/23 22:34:03;;;;;;;6.32;2.00;;;16.90;99.90;;;;;;4830546;29;34979;-55
2022/07/23 22:36:31;;;;;;;6.68;2.50;;;16.90;99.90;;;;;;4830182;29;38538;-55
2022/07/23 22:38:58;;;;;;;9.27;2.55;;;16.90;99.90;;;;;;4827108;29;37945;-55
2022/07/23 22:41:27;;;;;;;7.18;2.60;;;17.00;99.90;;;;;;4829577;29;38484;-55
2022/07/23 22:43:54;;;;;;;5.70;2.85;;;17.00;99.90;;;;;;4829035;29;36507;-55
2022/07/23 22:46:22;;;;;;;6.03;2.78;;;17.00;99.90;;;;;;4830678;29;36273;-55
2022/07/23 22:48:49;;;;;;;5.80;2.45;;;16.90;99.90;;;;;;4833188;29;38082;-55
2022/07/23 22:51:16;;;;;;;3.72;2.25;;;16.90;99.90;;;;;;4832755;29;36638;-55
2022/07/23 22:53:44;;;;;;;5.95;2.40;;;16.90;99.90;;;;;;4833068;29;36042;-55
2022/07/23 22:56:11;;;;;;;7.80;3.13;;;16.90;99.90;;;;;;4831612;29;37561;-55
2022/07/23 22:58:40;;;;;;;5.60;2.30;;;16.90;99.90;;;;;;4831794;29;38554;-55
2022/07/23 23:01:07;;;;;;;4.07;1.75;;;16.80;99.90;;;;;;4832550;29;37662;-55
2022/07/23 23:03:35;;;;;;;4.38;2.10;;;16.80;99.90;;;;;;4832934;29;37841;-55
2022/07/23 23:06:02;;;;;;;4.22;2.20;;;16.80;99.90;;;;;;4832592;29;39752;-55
2022/07/23 23:08:29;;;;;;;7.05;2.45;;;16.80;99.90;;;;;;4832020;29;37682;-55
2022/07/23 23:10:57;;;;;;;5.75;2.05;;;16.80;99.90;;;;;;4832400;29;37758;-55